Time;durP1;ratioP1;P1;durP2;ratioP2;P2;SDS_P1;SDS_P2;PMS_P1;PMS_P2;Temp;Humidity;BMP_temperature;BMP_pressure;BME280_temperature;BME280_humidity;BME280_pressure;Samples;Min_cycle;Max_cycle;Signal;HPM_P1;HPM_P2
2022/02/24 00:01:45;;;;;;;16.20;8.70;;;;;;;1.02;100.00;101010.59;6297984;28;20059;-69
2022/02/24 00:04:46;;;;;;;19.98;10.68;;;;;;;0.93;100.00;101019.22;6297841;28;20079;-68
2022/02/24 00:07:47;;;;;;;15.13;9.70;;;;;;;0.84;100.00;101021.84;6297775;28;20062;-72
2022/02/24 00:10:48;;;;;;;15.50;9.05;;;;;;;0.82;100.00;101032.13;6314948;28;20503;-72
2022/02/24 00:13:49;;;;;;;17.70;9.20;;;;;;;0.76;100.00;101034.72;6297578;28;20053;-72
2022/02/24 00:16:50;;;;;;;15.13;8.93;;;;;;;0.73;100.00;101035.59;6297602;28;20089;-68
2022/02/24 00:19:51;;;;;;;14.55;9.00;;;;;;;0.72;100.00;101044.19;6298555;28;20445;-68
2022/02/24 00:22:51;;;;;;;24.73;10.95;;;;;;;0.70;100.00;101037.31;6298578;28;20403;-68
2022/02/24 00:25:52;;;;;;;19.73;10.70;;;;;;;0.77;100.00;101034.72;6264370;28;20056;-68
2022/02/24 00:28:53;;;;;;;18.35;9.82;;;;;;;0.85;100.00;101031.25;6297153;28;20051;-68
2022/02/24 00:31:54;;;;;;;19.20;10.90;;;;;;;0.94;100.00;101026.06;6297344;28;20053;-71
2022/02/24 00:34:54;;;;;;;36.35;11.65;;;;;;;0.96;100.00;101030.31;6280312;28;20113;-68
2022/02/24 00:37:55;;;;;;;64.65;12.63;;;;;;;0.99;100.00;101026.91;6296966;28;20049;-68
2022/02/24 00:40:56;;;;;;;135.55;13.77;;;;;;;0.94;100.00;101028.63;6298115;28;20068;-68
2022/02/24 00:43:57;;;;;;;142.30;13.15;;;;;;;0.94;100.00;101033.78;6296764;28;20432;-68
2022/02/24 00:46:58;;;;;;;69.60;12.15;;;;;;;1.03;100.00;101027.72;6296654;28;20045;-69
2022/02/24 00:49:58;;;;;;;100.88;15.18;;;;;;;0.95;100.00;101028.63;6297775;28;20057;-68
2022/02/24 00:52:59;;;;;;;67.25;13.32;;;;;;;0.94;100.00;101034.63;6296600;28;20040;-70
2022/02/24 00:56:00;;;;;;;78.80;12.55;;;;;;;0.95;100.00;101030.34;6296176;28;20040;-72
2022/02/24 00:59:01;;;;;;;188.70;13.90;;;;;;;0.98;100.00;101030.31;6279867;28;20044;-69
2022/02/24 01:02:02;;;;;;;110.60;11.50;;;;;;;0.91;100.00;101029.50;6297635;28;20407;-69
2022/02/24 01:05:03;;;;;;;104.15;10.85;;;;;;;0.92;100.00;101027.78;6297825;28;20402;-71
2022/02/24 01:08:04;;;;;;;150.30;12.57;;;;;;;0.91;100.00;101023.53;6296131;28;20037;-71
2022/02/24 01:11:05;;;;;;;175.68;12.60;;;;;;;0.86;100.00;101032.97;6296173;28;20040;-71
2022/02/24 01:14:06;;;;;;;229.07;13.60;;;;;;;0.80;100.00;101032.16;6296005;28;20422;-68
2022/02/24 01:17:07;;;;;;;79.70;11.63;;;;;;;0.74;100.00;101034.75;6279469;28;20132;-71
2022/02/24 01:20:08;;;;;;;263.17;15.05;;;;;;;0.77;100.00;101032.16;6296963;28;20048;-71
2022/02/24 01:23:09;;;;;;;209.45;15.05;;;;;;;0.75;100.00;101020.19;6297318;28;20052;-71
2022/02/24 01:26:11;;;;;;;292.25;17.17;;;;;;;0.71;100.00;101021.06;6295713;28;20037;-71
2022/02/24 01:29:12;;;;;;;346.98;20.40;;;;;;;0.75;100.00;101013.31;6296775;28;20045;-72
2022/02/24 01:32:13;;;;;;;303.00;24.30;;;;;;;0.64;100.00;101015.09;6279162;28;20511;-71
2022/02/24 01:35:13;;;;;;;275.95;16.33;;;;;;;0.79;100.00;101011.59;6278859;28;20044;-68
2022/02/24 01:38:14;;;;;;;231.25;16.33;;;;;;;0.64;100.00;101016.78;6295531;28;20487;-68
2022/02/24 01:41:15;;;;;;;179.20;12.75;;;;;;;0.67;100.00;101006.50;6295425;28;20095;-68
2022/02/24 01:44:16;;;;;;;288.83;13.40;;;;;;;0.68;100.00;101005.63;6295456;28;20056;-68
2022/02/24 01:47:17;;;;;;;121.03;11.27;;;;;;;0.69;100.00;101013.34;6295155;28;20040;-68
2022/02/24 01:50:18;;;;;;;178.10;10.57;;;;;;;0.64;100.00;101007.38;6295223;28;20082;-68
2022/02/24 01:53:19;;;;;;;208.63;10.45;;;;;;;0.56;100.00;101007.41;6296561;28;20043;-68
2022/02/24 01:56:20;;;;;;;68.55;8.57;;;;;;;0.48;100.00;101010.88;6296236;28;20398;-68
2022/02/24 01:59:21;;;;;;;33.47;7.88;;;;;;;0.40;100.00;101009.19;6278503;28;20414;-68
2022/02/24 02:02:22;;;;;;;50.53;7.20;;;;;;;0.34;100.00;101011.78;6295029;28;20041;-69
2022/02/24 02:05:23;;;;;;;46.60;8.60;;;;;;;0.23;100.00;101003.28;6295152;28;20047;-72
2022/02/24 02:08:23;;;;;;;67.93;10.57;;;;;;;0.25;100.00;100999.00;6294183;28;20209;-72
2022/02/24 02:11:24;;;;;;;44.28;9.10;;;;;;;0.20;100.00;101001.56;6278483;28;20055;-72
2022/02/24 02:14:25;;;;;;;39.50;9.80;;;;;;;0.12;100.00;100998.16;6296135;28;20506;-72
2022/02/24 02:17:26;;;;;;;38.60;10.40;;;;;;;0.20;100.00;100998.13;6311698;28;20567;-71
2022/02/24 02:20:27;;;;;;;34.83;9.90;;;;;;;0.22;100.00;100998.13;6295044;28;20571;-67
2022/02/24 02:23:28;;;;;;;21.77;9.70;;;;;;;0.15;100.00;100997.31;6296096;28;20052;-68
2022/02/24 02:26:31;;;;;;;20.50;8.45;;;;;;;0.10;100.00;100993.88;6278234;28;20048;-71
2022/02/24 02:29:32;;;;;;;23.83;11.40;;;;;;;0.04;100.00;100999.03;6295969;28;20403;-68
2022/02/24 02:32:33;;;;;;;17.92;10.02;;;;;;;-0.03;100.00;100991.34;6294902;28;20041;-68
2022/02/24 02:35:34;;;;;;;19.55;11.00;;;;;;;0.03;100.00;101005.88;6294822;28;20139;-71
2022/02/24 02:38:35;;;;;;;22.63;9.48;;;;;;;-0.07;100.00;101010.19;6296250;28;20445;-71
2022/02/24 02:41:37;;;;;;;17.10;10.00;;;;;;;-0.15;100.00;101011.91;6296303;28;20045;-71
2022/02/24 02:44:37;;;;;;;23.42;10.40;;;;;;;-0.21;100.00;101011.91;6294705;28;20189;-71
2022/02/24 02:47:38;;;;;;;19.67;9.38;;;;;;;-0.24;100.00;101014.50;6294558;28;20089;-71
2022/02/24 02:50:40;;;;;;;15.77;8.38;;;;;;;-0.19;100.00;101017.91;6294739;28;20544;-71
2022/02/24 02:53:40;;;;;;;13.20;8.43;;;;;;;-0.18;100.00;101016.22;6294614;28;20036;-72
2022/02/24 02:56:41;;;;;;;18.35;9.27;;;;;;;-0.21;100.00;101010.22;6294462;28;20041;-71
2022/02/24 02:59:42;;;;;;;16.48;9.07;;;;;;;-0.20;100.00;101013.63;6294506;28;20049;-71
2022/02/24 03:02:43;;;;;;;13.68;8.88;;;;;;;-0.23;100.00;101023.88;6294363;28;20449;-72
2022/02/24 03:05:44;;;;;;;14.55;9.00;;;;;;;-0.34;100.00;101023.06;6294522;28;20115;-67
2022/02/24 03:08:44;;;;;;;13.38;7.82;;;;;;;-0.37;100.00;101015.34;6294269;28;20450;-68
2022/02/24 03:11:45;;;;;;;12.10;8.00;;;;;;;-0.32;100.00;101011.94;6294578;28;20380;-68
2022/02/24 03:14:46;;;;;;;17.90;9.18;;;;;;;-0.45;100.00;101028.19;6294212;28;20044;-71
2022/02/24 03:17:48;;;;;;;17.45;9.75;;;;;;;-0.49;100.00;101017.06;6294309;28;20094;-71
2022/02/24 03:20:48;;;;;;;18.77;8.97;;;;;;;-0.47;100.00;101019.66;6296987;28;20131;-72
2022/02/24 03:23:49;;;;;;;16.35;9.05;;;;;;;-0.47;100.00;101019.66;6298693;28;20036;-71
2022/02/24 03:26:50;;;;;;;19.67;9.18;;;;;;;-0.52;100.00;101023.91;6298704;28;20040;-72
2022/02/24 03:29:51;;;;;;;22.48;8.90;;;;;;;-0.51;100.00;101023.91;6299623;28;20431;-71
2022/02/24 03:32:52;;;;;;;17.75;8.77;;;;;;;-0.50;100.00;101023.03;6298728;28;20072;-71
2022/02/24 03:35:53;;;;;;;19.17;8.77;;;;;;;-0.51;100.00;101021.34;6299582;28;20047;-68
2022/02/24 03:38:53;;;;;;;16.27;8.00;;;;;;;-0.60;100.00;101031.59;6299698;28;20059;-71
2022/02/24 03:41:54;;;;;;;19.05;8.70;;;;;;;-0.64;100.00;101022.19;6299402;28;20510;-71
2022/02/24 03:44:56;;;;;;;15.45;8.27;;;;;;;-0.70;100.00;101023.06;6298163;28;20053;-67
2022/02/24 03:47:57;;;;;;;18.38;8.57;;;;;;;-0.68;100.00;101023.03;6298265;28;20402;-67
2022/02/24 03:50:57;;;;;;;13.10;8.13;;;;;;;-0.75;100.00;101029.88;6299809;28;20044;-67
2022/02/24 03:53:58;;;;;;;12.50;7.65;;;;;;;-0.74;100.00;101035.84;6298275;28;20044;-67
2022/02/24 03:56:59;;;;;;;11.40;7.50;;;;;;;-0.76;100.00;101038.44;6299062;28;20048;-71
2022/02/24 03:59:59;;;;;;;12.27;7.68;;;;;;;-0.74;100.00;101036.72;6299179;28;20081;-67
2022/02/24 04:03:00;;;;;;;10.45;7.22;;;;;;;-0.77;100.00;101028.19;6297770;28;20109;-71
2022/02/24 04:06:01;;;;;;;14.52;7.88;;;;;;;-0.85;100.00;101021.31;6281264;28;20479;-71
2022/02/24 04:09:02;;;;;;;14.35;7.88;;;;;;;-0.87;100.00;101028.16;6280964;28;20487;-67
2022/02/24 04:12:05;;;;;;;13.75;8.52;;;;;;;-0.91;100.00;101029.00;6281312;28;20422;-69
2022/02/24 04:15:06;;;;;;;16.92;8.60;;;;;;;-0.96;100.00;101032.41;6298880;28;20635;-72
2022/02/24 04:18:07;;;;;;;15.35;8.50;;;;;;;-0.98;100.00;101032.41;6298567;28;20486;-71
2022/02/24 04:21:08;;;;;;;13.43;8.88;;;;;;;-1.05;100.00;101034.13;6297461;28;20067;-68
2022/02/24 04:24:09;;;;;;;13.38;8.38;;;;;;;-1.06;100.00;101034.94;6280988;28;20072;-67
2022/02/24 04:27:11;;;;;;;13.52;8.77;;;;;;;-1.10;100.00;101027.25;6297197;28;20121;-67
2022/02/24 04:30:12;;;;;;;13.30;8.45;;;;;;;-1.06;100.00;101032.38;6298328;28;20068;-68
2022/02/24 04:33:12;;;;;;;12.80;8.20;;;;;;;-1.03;100.00;101044.34;6279628;28;20109;-71
2022/02/24 04:36:13;;;;;;;12.52;8.30;;;;;;;-1.09;100.00;101042.63;6296975;28;20052;-71
2022/02/24 04:39:14;;;;;;;13.75;7.78;;;;;;;-1.10;100.00;101037.50;6298026;28;20048;-71
2022/02/24 04:42:15;;;;;;;22.80;10.25;;;;;;;-1.08;100.00;101052.03;6298042;28;20052;-71
2022/02/24 04:45:16;;;;;;;33.67;10.70;;;;;;;-1.06;100.00;101049.47;6297861;28;20131;-71
2022/02/24 04:48:18;;;;;;;27.75;11.38;;;;;;;-1.09;100.00;101054.56;6297821;28;20041;-71
2022/02/24 04:51:19;;;;;;;22.58;12.05;;;;;;;-1.11;100.00;101051.16;6296678;28;20044;-71
2022/02/24 04:54:20;;;;;;;18.48;10.35;;;;;;;-1.15;100.00;101046.88;6296579;28;20554;-71
2022/02/24 04:57:21;;;;;;;22.20;10.35;;;;;;;-1.14;100.00;101061.41;6297554;28;20049;-71
2022/02/24 05:00:22;;;;;;;57.55;22.42;;;;;;;-1.20;100.00;101064.78;6296618;28;20048;-71
2022/02/24 05:03:23;;;;;;;44.10;18.00;;;;;;;-1.18;100.00;101072.47;6297431;28;20044;-71
2022/02/24 05:06:24;;;;;;;33.42;14.52;;;;;;;-1.24;100.00;101070.75;6280051;28;20115;-67
2022/02/24 05:09:25;;;;;;;21.33;10.15;;;;;;;-1.31;100.00;101069.03;6297185;28;20072;-67
2022/02/24 05:12:27;;;;;;;18.85;9.75;;;;;;;-1.32;100.00;101073.31;6297282;28;20483;-67
2022/02/24 05:15:28;;;;;;;16.45;9.02;;;;;;;-1.34;100.00;101075.00;6296110;28;20036;-71
2022/02/24 05:18:29;;;;;;;19.33;10.63;;;;;;;-1.51;100.00;101072.34;6297100;28;20040;-68
2022/02/24 05:21:29;;;;;;;17.30;9.57;;;;;;;-1.43;100.00;101077.50;6296045;28;20047;-68
2022/02/24 05:24:30;;;;;;;14.50;7.70;;;;;;;-1.45;100.00;101067.25;6296927;28;20056;-68
2022/02/24 05:27:31;;;;;;;16.00;8.80;;;;;;;-1.40;100.00;101077.53;6295793;28;20040;-68
2022/02/24 05:30:32;;;;;;;17.25;8.93;;;;;;;-1.35;100.00;101075.84;6296721;28;20040;-67
2022/02/24 05:33:33;;;;;;;18.20;8.73;;;;;;;-1.40;100.00;101071.53;6295681;28;20407;-67
2022/02/24 05:36:34;;;;;;;14.23;8.82;;;;;;;-1.41;100.00;101083.50;6295526;28;20123;-71
2022/02/24 05:39:35;;;;;;;21.40;8.63;;;;;;;-1.43;100.00;101085.19;6278975;28;20501;-71
2022/02/24 05:42:36;;;;;;;12.60;8.50;;;;;;;-1.46;100.00;101080.06;6296538;28;20041;-71
2022/02/24 05:45:37;;;;;;;15.75;8.30;;;;;;;-1.36;100.00;101084.38;6278596;28;20097;-71
2022/02/24 05:48:37;;;;;;;14.38;8.95;;;;;;;-1.41;100.00;101078.38;6295300;28;20709;-71
2022/02/24 05:51:39;;;;;;;15.55;9.00;;;;;;;-1.42;100.00;101080.09;6296478;28;20045;-67
2022/02/24 05:54:39;;;;;;;17.90;8.95;;;;;;;-1.40;100.00;101072.41;6295237;28;20041;-71
2022/02/24 05:57:44;;;;;;;16.75;8.80;;;;;;;-1.39;100.00;101078.38;6295234;28;20051;-71
2022/02/24 06:00:45;;;;;;;14.02;8.45;;;;;;;-1.41;100.00;101080.94;6296298;28;20048;-71
2022/02/24 06:03:46;;;;;;;15.02;9.15;;;;;;;-1.39;100.00;101080.94;6296283;28;20044;-71
2022/02/24 06:06:46;;;;;;;16.95;8.95;;;;;;;-1.35;100.00;101078.41;6296287;28;20037;-72
2022/02/24 06:09:47;;;;;;;16.92;8.88;;;;;;;-1.29;100.00;101082.69;6294836;28;20064;-68
2022/02/24 06:12:48;;;;;;;13.65;9.82;;;;;;;-1.29;100.00;101070.75;6296165;28;20045;-67
2022/02/24 06:15:49;;;;;;;14.82;8.98;;;;;;;-1.17;100.00;101082.75;6278448;28;20396;-68
2022/02/24 06:18:49;;;;;;;14.68;9.10;;;;;;;-1.37;100.00;101072.41;6296194;28;20151;-67
2022/02/24 06:21:52;;;;;;;16.75;10.05;;;;;;;-1.40;100.00;101080.09;6295008;28;20471;-69
2022/02/24 06:24:52;;;;;;;15.30;9.82;;;;;;;-1.25;100.00;101075.03;6296215;28;20041;-71
2022/02/24 06:27:53;;;;;;;20.58;14.07;;;;;;;-1.09;100.00;101088.75;6294875;28;20063;-67
2022/02/24 06:30:54;;;;;;;27.90;18.20;;;;;;;-0.95;100.00;101077.66;6295780;28;20039;-68
2022/02/24 06:33:55;;;;;;;26.77;18.15;;;;;;;-0.84;100.00;101081.97;6294816;28;20036;-68
2022/02/24 06:36:56;;;;;;;21.80;14.95;;;;;;;-0.79;100.00;101071.72;6294799;28;20041;-68
2022/02/24 06:39:58;;;;;;;18.83;13.00;;;;;;;-0.84;100.00;101086.25;6294700;28;20132;-68
2022/02/24 06:42:59;;;;;;;17.07;11.57;;;;;;;-0.64;100.00;101089.72;6283938;28;20098;-69
2022/02/24 06:46:00;;;;;;;17.67;12.65;;;;;;;-0.50;100.00;101097.41;6285005;28;20282;-69
2022/02/24 06:49:01;;;;;;;20.42;12.02;;;;;;;-0.36;100.00;101100.00;6270331;28;20128;-72
2022/02/24 06:52:02;;;;;;;20.45;11.98;;;;;;;-0.25;100.00;101107.69;6270951;28;20041;-72
2022/02/24 06:55:06;;;;;;;27.92;14.98;;;;;;;-0.18;100.00;101094.00;6272518;28;20798;-69
2022/02/24 06:58:07;;;;;;;31.42;15.98;;;;;;;-0.03;100.00;101101.69;6275485;28;20036;-72
2022/02/24 07:01:07;;;;;;;28.83;15.65;;;;;;;0.03;100.00;101108.53;6274229;28;20556;-69
2022/02/24 07:04:08;;;;;;;28.30;17.10;;;;;;;0.14;100.00;101104.22;6275348;28;20041;-69
2022/02/24 07:07:10;;;;;;;25.90;15.18;;;;;;;0.21;100.00;101105.09;6274054;28;20559;-72
2022/02/24 07:10:13;;;;;;;20.50;14.53;;;;;;;0.26;100.00;101105.94;6274044;28;20044;-68
2022/02/24 07:13:13;;;;;;;19.38;12.82;;;;;;;0.31;100.00;101100.78;6275117;28;20069;-72
2022/02/24 07:16:14;;;;;;;16.10;11.70;;;;;;;0.39;100.00;101109.31;6257335;28;20049;-68
2022/02/24 07:19:15;;;;;;;21.75;12.07;;;;;;;0.45;100.00;101108.47;6273735;28;20041;-72
2022/02/24 07:22:16;;;;;;;23.38;14.30;;;;;;;0.57;100.00;101105.88;6257442;28;20086;-72
2022/02/24 07:25:20;;;;;;;21.52;13.75;;;;;;;0.67;100.00;101106.69;6274852;28;20480;-69
2022/02/24 07:28:20;;;;;;;22.55;14.85;;;;;;;0.85;100.00;101103.22;6273666;28;20041;-69
2022/02/24 07:31:21;;;;;;;24.17;15.95;;;;;;;0.97;100.00;101103.16;6273621;28;20049;-69
2022/02/24 07:34:22;;;;;;;24.30;15.30;;;;;;;1.10;100.00;101102.22;6273606;28;20407;-70
2022/02/24 07:37:23;;;;;;;23.58;15.20;;;;;;;1.29;100.00;101108.09;6256955;28;20060;-70
2022/02/24 07:40:24;;;;;;;23.42;14.88;;;;;;;1.40;100.00;101102.88;6273464;28;20618;-69
2022/02/24 07:43:25;;;;;;;22.67;15.23;;;;;;;1.64;100.00;101103.59;6274405;28;20045;-70
2022/02/24 07:46:27;;;;;;;26.35;15.85;;;;;;;1.77;100.00;101102.63;6274320;28;20044;-69
2022/02/24 07:49:28;;;;;;;29.90;17.83;;;;;;;1.89;100.00;101105.09;6273033;28;20272;-72
2022/02/24 07:52:29;;;;;;;32.03;19.45;;;;;;;2.06;100.00;101099.84;6273173;28;20043;-72
2022/02/24 07:55:30;;;;;;;32.22;22.45;;;;;;;2.27;100.00;101101.34;6274231;28;20041;-72
2022/02/24 07:58:31;;;;;;;38.28;23.85;;;;;;;2.42;100.00;101101.16;6272850;28;20499;-69
2022/02/24 08:01:32;;;;;;;38.15;22.10;;;;;;;2.58;100.00;101093.28;6272870;28;20525;-69
2022/02/24 08:04:33;;;;;;;32.08;21.13;;;;;;;2.65;100.00;101092.31;6256289;28;20063;-68
2022/02/24 08:07:34;;;;;;;37.50;20.73;;;;;;;2.75;100.00;101095.66;6272791;28;20103;-69
2022/02/24 08:10:35;;;;;;;35.38;20.35;;;;;;;2.88;100.00;101097.19;6256026;28;20044;-69
2022/02/24 08:13:36;;;;;;;29.48;18.70;;;;;;;3.01;100.00;101087.59;6272654;28;20052;-68
2022/02/24 08:16:37;;;;;;;27.75;18.85;;;;;;;3.13;100.00;101091.72;6256025;28;20182;-72
2022/02/24 08:19:38;;;;;;;29.30;19.60;;;;;;;3.28;100.00;101088.94;6273549;28;20048;-69
2022/02/24 08:22:43;;;;;;;28.40;19.33;;;;;;;3.38;100.00;101093.09;6273629;28;20045;-68
2022/02/24 08:25:45;;;;;;;30.98;19.60;;;;;;;3.60;100.00;101093.63;6273451;28;20041;-72
2022/02/24 08:28:48;;;;;;;32.33;19.93;;;;;;;3.66;100.00;101097.81;6272309;28;20041;-72
2022/02/24 08:31:49;;;;;;;34.13;22.05;;;;;;;3.88;100.00;101100.91;6272134;28;20045;-70
2022/02/24 08:34:50;;;;;;;35.50;21.80;;;;;;;4.04;100.00;101094.63;6273431;28;20047;-72
2022/02/24 08:37:51;;;;;;;31.95;19.77;;;;;;;4.10;100.00;101088.50;6273190;28;20045;-73
2022/02/24 08:40:52;;;;;;;29.75;18.95;;;;;;;4.23;100.00;101078.78;6271906;28;20041;-73
2022/02/24 08:43:53;;;;;;;39.72;23.48;;;;;;;4.41;100.00;101082.78;6271882;28;20260;-71
2022/02/24 08:46:54;;;;;;;46.55;27.10;;;;;;;4.67;100.00;101071.06;6273109;28;20037;-73
2022/02/24 08:49:55;;;;;;;38.20;22.77;;;;;;;4.78;100.00;101076.88;6255199;28;20045;-74
2022/02/24 08:52:57;;;;;;;36.10;21.25;;;;;;;4.95;100.00;101079.09;6272920;28;20064;-74
2022/02/24 08:55:58;;;;;;;39.35;23.02;;;;;;;5.06;100.00;101082.28;6271701;28;20053;-71
2022/02/24 08:58:59;;;;;;;37.05;23.20;;;;;;;5.28;100.00;101080.09;6271526;28;20056;-71
2022/02/24 09:02:00;;;;;;;32.60;18.95;;;;;;;5.38;100.00;101076.41;6254877;28;20036;-71
2022/02/24 09:05:01;;;;;;;30.23;18.80;;;;;;;5.59;100.00;101074.19;6271411;28;20048;-75
2022/02/24 09:08:02;;;;;;;32.10;18.35;;;;;;;5.64;100.00;101069.75;6272490;28;20048;-74
2022/02/24 09:11:03;;;;;;;31.67;17.75;;;;;;;5.87;100.00;101069.19;6271390;28;20037;-70
2022/02/24 09:14:04;;;;;;;26.90;16.83;;;;;;;6.03;100.00;101069.66;6287745;28;20057;-74
2022/02/24 09:17:05;;;;;;;24.33;16.08;;;;;;;6.18;100.00;101065.84;6270916;28;20045;-74
2022/02/24 09:20:07;;;;;;;24.42;15.98;;;;;;;6.18;100.00;101069.28;6237983;28;20079;-70
2022/02/24 09:23:09;;;;;;;27.40;16.52;;;;;;;6.44;100.00;101063.41;6271074;28;20049;-70
2022/02/24 09:26:10;;;;;;;22.92;14.93;;;;;;;6.56;100.00;101064.78;6272162;28;20041;-70
2022/02/24 09:29:11;;;;;;;24.50;14.38;;;;;;;6.68;98.20;101058.41;6272072;28;20090;-74
2022/02/24 09:32:12;;;;;;;22.23;13.53;;;;;;;6.89;93.62;101064.69;6271943;28;20431;-70
2022/02/24 09:35:14;;;;;;;16.27;11.85;;;;;;;6.89;88.87;101058.66;6271046;28;20056;-71
2022/02/24 09:38:16;;;;;;;22.05;12.05;;;;;;;7.11;90.14;101064.06;6270705;28;20129;-75
2022/02/24 09:41:18;;;;;;;19.73;11.10;;;;;;;7.20;92.00;101061.16;6271827;28;20048;-71
2022/02/24 09:44:19;;;;;;;22.20;11.02;;;;;;;7.19;84.62;101049.09;6270444;28;20064;-75
2022/02/24 09:47:20;;;;;;;20.15;11.80;;;;;;;7.55;87.43;101051.41;6271643;28;20037;-74
2022/02/24 09:50:23;;;;;;;19.65;10.45;;;;;;;7.62;83.99;101058.13;6270498;28;20037;-74
2022/02/24 09:53:26;;;;;;;15.48;10.25;;;;;;;7.69;85.20;101049.22;6270307;28;20056;-75
2022/02/24 09:56:31;;;;;;;16.75;10.45;;;;;;;7.87;86.63;101048.59;6271539;28;20049;-75
2022/02/24 09:59:32;;;;;;;18.83;11.07;;;;;;;8.07;87.32;101034.94;6270230;28;20049;-75
2022/02/24 10:02:34;;;;;;;18.90;10.45;;;;;;;8.05;86.97;101044.53;6270166;28;20052;-75
2022/02/24 10:05:45;;;;;;;21.90;10.48;;;;;;;8.22;86.06;101038.75;6270153;28;20072;-75
2022/02/24 10:08:48;;;;;;;18.48;9.00;;;;;;;8.23;84.53;101035.22;6253766;28;20083;-74
2022/02/24 10:11:48;;;;;;;;;;;;;;;8.31;86.56;101037.56;6271483;28;20102;-70
2022/02/24 10:14:49;;;;;;;15.18;8.93;;;;;;;8.29;84.50;101031.56;6271113;28;19921;-71
2022/02/24 10:18:14;;;;;;;14.40;9.07;;;;;;;8.48;82.39;101026.56;6270035;28;20570;-71
2022/02/24 10:21:18;;;;;;;13.85;8.45;;;;;;;8.32;80.62;101017.59;6270995;28;20127;-74
2022/02/24 10:24:24;;;;;;;16.17;9.20;;;;;;;8.70;83.04;101018.81;6271239;28;20068;-74
2022/02/24 10:27:32;;;;;;;15.25;8.40;;;;;;;8.85;80.47;101022.56;6270968;28;20045;-74
2022/02/24 10:30:33;;;;;;;19.15;9.20;;;;;;;8.63;80.34;101028.63;6272282;28;20064;-74
2022/02/24 10:33:37;;;;;;;15.57;8.77;;;;;;;8.76;80.50;101015.13;6274924;28;20395;-71
2022/02/24 10:36:38;;;;;;;15.00;8.30;;;;;;;8.71;76.37;101012.72;6276064;28;20045;-70
2022/02/24 10:39:39;;;;;;;18.08;9.82;;;;;;;8.58;74.92;101008.88;6291542;28;20056;-75
2022/02/24 10:42:40;;;;;;;16.42;9.35;;;;;;;8.90;79.39;101012.00;6275909;28;20076;-71
2022/02/24 10:45:43;;;;;;;14.55;7.90;;;;;;;9.00;71.81;101003.78;6274601;28;20057;-71
2022/02/24 10:48:57;;;;;;;15.55;7.90;;;;;;;9.28;75.12;101011.31;6274632;28;20407;-75
2022/02/24 10:52:20;;;;;;;16.45;7.80;;;;;;;9.12;67.50;101002.47;6274604;28;20045;-74
2022/02/24 10:55:20;;;;;;;12.20;6.72;;;;;;;9.26;69.64;101004.47;6275663;28;20037;-75
2022/02/24 10:58:23;;;;;;;12.77;6.40;;;;;;;9.39;67.95;100994.41;6275518;28;20049;-74
2022/02/24 11:01:25;;;;;;;12.02;6.45;;;;;;;9.22;70.02;100993.34;6274356;28;20407;-70
2022/02/24 11:04:27;;;;;;;17.40;7.50;;;;;;;9.57;67.96;100974.56;6275385;28;20049;-71
2022/02/24 11:07:29;;;;;;;17.13;6.07;;;;;;;9.55;65.00;100979.84;6257808;28;20045;-70
2022/02/24 11:10:30;;;;;;;24.45;10.98;;;;;;;9.81;64.38;100963.09;6274135;28;20402;-70
2022/02/24 11:13:32;;;;;;;13.90;5.65;;;;;;;9.83;61.11;100963.03;6274136;28;20052;-70
2022/02/24 11:16:34;;;;;;;13.60;4.80;;;;;;;9.74;56.07;100946.06;6273922;28;20048;-70
2022/02/24 11:19:43;;;;;;;11.53;4.57;;;;;;;9.84;59.28;100947.34;6273968;28;20052;-70
2022/02/24 11:22:46;;;;;;;10.15;3.25;;;;;;;9.91;52.60;100942.69;6274948;28;20049;-74
2022/02/24 11:26:01;;;;;;;10.75;3.50;;;;;;;9.74;51.01;100932.16;6273859;28;20074;-74
2022/02/24 11:29:31;;;;;;;17.90;6.95;;;;;;;9.77;49.99;100932.88;6274800;28;20480;-70
2022/02/24 11:32:32;;;;;;;19.95;6.00;;;;;;;9.66;53.66;100920.31;6274695;28;20522;-74
2022/02/24 11:35:33;;;;;;;9.93;3.00;;;;;;;9.63;52.55;100924.81;6273535;28;20045;-74
2022/02/24 11:38:35;;;;;;;8.45;3.00;;;;;;;9.84;48.53;100925.63;6274902;28;20045;-74
2022/02/24 11:41:54;;;;;;;12.70;4.85;;;;;;;9.87;50.24;100910.69;6274195;28;20099;-71
2022/02/24 11:44:56;;;;;;;11.77;4.80;;;;;;;10.00;55.91;100912.75;6274506;28;20061;-74
2022/02/24 11:48:16;;;;;;;10.70;3.00;;;;;;;9.94;53.50;100910.44;6274483;28;20561;-70
2022/02/24 11:51:19;;;;;;;8.25;2.95;;;;;;;9.88;50.83;100901.09;6274467;28;20049;-74
2022/02/24 11:54:39;;;;;;;11.20;3.67;;;;;;;9.99;51.46;100898.88;6274117;28;20486;-70
2022/02/24 11:57:40;;;;;;;8.90;3.33;;;;;;;9.81;49.79;100890.13;6274136;28;20144;-70
2022/02/24 12:01:13;;;;;;;8.73;3.65;;;;;;;10.13;52.99;100887.84;6272909;28;20116;-74
2022/02/24 12:04:27;;;;;;;10.45;3.38;;;;;;;10.14;49.50;100883.47;6272852;28;20033;-70
2022/02/24 12:07:28;;;;;;;11.00;4.82;;;;;;;10.24;52.01;100874.28;6274015;28;20069;-73
2022/02/24 12:10:43;;;;;;;13.00;3.45;;;;;;;9.98;53.58;100868.50;6273768;28;20055;-73
2022/02/24 12:13:44;;;;;;;15.73;5.80;;;;;;;10.22;52.37;100871.75;6273863;28;20472;-73
2022/02/24 12:17:03;;;;;;;11.80;4.57;;;;;;;10.39;51.74;100864.94;6273872;28;20044;-73
2022/02/24 12:20:18;;;;;;;12.63;5.05;;;;;;;10.27;51.92;100859.34;6272561;28;20099;-70
2022/02/24 12:23:22;;;;;;;8.57;2.80;;;;;;;10.15;51.71;100856.44;6273499;28;20048;-69
2022/02/24 12:26:45;;;;;;;10.77;3.72;;;;;;;10.17;50.23;100855.47;6273651;28;20045;-69
2022/02/24 12:29:45;;;;;;;17.03;6.50;;;;;;;10.11;50.00;100841.88;6273410;28;20045;-72
2022/02/24 12:33:04;;;;;;;8.93;3.38;;;;;;;10.15;51.43;100841.66;6273466;28;20047;-72
2022/02/24 12:36:05;;;;;;;11.60;3.78;;;;;;;10.10;51.46;100833.19;6273271;28;20037;-68
2022/02/24 12:39:06;;;;;;;11.40;2.75;;;;;;;10.06;51.06;100829.88;6272152;28;20403;-69
2022/02/24 12:42:09;;;;;;;8.23;3.53;;;;;;;10.04;52.10;100823.06;6255423;28;20123;-68
2022/02/24 12:45:10;;;;;;;9.32;3.22;;;;;;;10.13;51.26;100819.16;6271801;28;20336;-72
2022/02/24 12:48:12;;;;;;;11.00;3.25;;;;;;;10.28;52.34;100808.88;6271845;28;20139;-72
2022/02/24 12:51:12;;;;;;;11.33;4.03;;;;;;;10.25;54.00;100803.81;6273095;28;20087;-72
2022/02/24 12:54:16;;;;;;;11.05;3.40;;;;;;;10.28;50.79;100802.81;6272074;28;20079;-72
2022/02/24 12:57:18;;;;;;;12.73;4.43;;;;;;;10.43;51.92;100807.31;6272894;28;20041;-72
2022/02/24 13:00:19;;;;;;;14.98;6.13;;;;;;;10.44;52.05;100795.97;6272809;28;20182;-72
2022/02/24 13:03:20;;;;;;;9.43;3.60;;;;;;;10.44;49.66;100795.97;6271600;28;20045;-69
2022/02/24 13:06:21;;;;;;;10.55;3.53;;;;;;;10.28;49.92;100793.22;6272730;28;20037;-69
2022/02/24 13:12:41;;;;;;;16.00;4.38;;;;;;;10.23;51.03;100776.94;6272340;28;20037;-68
2022/02/24 13:15:42;;;;;;;14.13;2.80;;;;;;;10.31;54.40;100774.00;6254614;28;20041;-72
2022/02/24 13:18:46;;;;;;;6.43;2.85;;;;;;;10.23;48.76;100768.25;6272257;28;20048;-72
2022/02/24 13:21:56;;;;;;;10.40;3.28;;;;;;;10.46;51.23;100775.03;6272163;28;20042;-72
2022/02/24 13:24:56;;;;;;;8.45;2.60;;;;;;;10.25;49.56;100771.63;6272285;28;20040;-72
2022/02/24 13:27:58;;;;;;;7.97;2.72;;;;;;;9.91;49.75;100765.44;6254308;28;20041;-68
2022/02/24 13:31:02;;;;;;;10.65;2.85;;;;;;;10.00;50.12;100758.94;6272013;28;20071;-68
2022/02/24 13:34:12;;;;;;;8.00;2.75;;;;;;;10.01;50.86;100751.06;6271925;28;20120;-72
2022/02/24 13:37:14;;;;;;;7.32;2.78;;;;;;;9.96;50.06;100754.78;6272027;28;20501;-68
2022/02/24 13:40:15;;;;;;;8.63;2.77;;;;;;;10.04;48.76;100752.66;6270560;28;20099;-68
2022/02/24 13:43:17;;;;;;;6.57;2.30;;;;;;;10.19;49.51;100754.56;6270360;28;20045;-69
2022/02/24 13:46:18;;;;;;;5.90;2.53;;;;;;;10.19;49.60;100736.28;6237634;28;20089;-68
2022/02/24 13:49:19;;;;;;;11.25;2.72;;;;;;;10.19;51.32;100745.84;6253854;28;20045;-68
2022/02/24 13:52:24;;;;;;;7.68;2.58;;;;;;;9.80;49.30;100726.84;6271644;28;20094;-68
2022/02/24 13:55:25;;;;;;;6.95;2.72;;;;;;;9.62;49.56;100731.16;6270162;28;20045;-72